createdAt,value
2022-09-06T00:01:50.833Z,20.20
2022-09-06T00:04:18.648Z,20.18
2022-09-06T00:06:46.319Z,20.20
2022-09-06T00:09:14.076Z,20.24
2022-09-06T00:11:42.975Z,20.30
2022-09-06T00:14:10.706Z,20.36
2022-09-06T00:16:40.742Z,20.40
2022-09-06T00:19:08.588Z,20.46
2022-09-06T00:21:36.877Z,20.48
2022-09-06T00:24:04.605Z,20.51
2022-09-06T00:26:32.437Z,20.52
2022-09-06T00:29:00.281Z,20.54
2022-09-06T00:31:28.906Z,20.54
2022-09-06T00:33:56.699Z,20.51
2022-09-06T00:36:24.470Z,20.50
2022-09-06T00:38:52.083Z,20.48
2022-09-06T00:41:20.086Z,20.48
2022-09-06T00:43:47.748Z,20.48
2022-09-06T00:46:15.608Z,20.48
2022-09-06T00:48:43.391Z,20.50
2022-09-06T00:51:12.038Z,20.52
2022-09-06T00:53:39.858Z,20.55
2022-09-06T00:56:07.515Z,20.56
2022-09-06T00:58:35.220Z,20.62
2022-09-06T01:01:03.164Z,20.64
2022-09-06T01:03:30.788Z,20.67
2022-09-06T01:05:58.570Z,20.69
2022-09-06T01:08:26.463Z,20.73
2022-09-06T01:10:55.589Z,20.74
2022-09-06T01:13:23.287Z,20.77
2022-09-06T01:15:51.022Z,20.79
2022-09-06T01:18:18.703Z,20.79
2022-09-06T01:20:46.686Z,20.82
2022-09-06T01:23:14.380Z,20.82
2022-09-06T01:25:42.117Z,20.83
2022-09-06T01:28:09.882Z,20.84
2022-09-06T01:30:38.537Z,20.84
2022-09-06T01:33:06.281Z,20.86
2022-09-06T01:35:34.931Z,20.87
2022-09-06T01:38:02.540Z,20.89
2022-09-06T01:40:30.547Z,20.92
2022-09-06T01:42:58.369Z,20.97
2022-09-06T01:45:26.315Z,21.09
2022-09-06T01:47:54.037Z,21.20
2022-09-06T01:50:21.709Z,21.29
2022-09-06T01:52:49.984Z,21.41
2022-09-06T01:55:17.735Z,21.53
2022-09-06T01:57:45.574Z,21.63
2022-09-06T02:00:13.305Z,21.70
2022-09-06T02:02:41.407Z,21.74
2022-09-06T02:05:09.160Z,21.81
2022-09-06T02:07:36.843Z,21.85
2022-09-06T02:10:04.604Z,21.93
2022-09-06T02:12:32.571Z,21.96
2022-09-06T02:15:00.328Z,21.98
2022-09-06T02:17:28.441Z,22.00
2022-09-06T02:19:56.101Z,22.00
2022-09-06T02:22:24.108Z,22.00
2022-09-06T02:24:51.836Z,22.03
2022-09-06T02:27:19.543Z,22.05
2022-09-06T02:29:47.233Z,22.05
2022-09-06T02:32:15.618Z,22.05
2022-09-06T02:34:43.407Z,22.03
2022-09-06T02:37:11.088Z,22.02
2022-09-06T02:39:38.875Z,21.99
2022-09-06T02:42:07.466Z,21.99
2022-09-06T02:44:35.221Z,21.98
2022-09-06T02:47:03.511Z,21.96
2022-09-06T02:49:31.430Z,21.94
2022-09-06T02:51:59.411Z,21.92
2022-09-06T02:54:27.071Z,21.92
2022-09-06T02:56:54.821Z,21.89
2022-09-06T02:59:22.565Z,21.88
2022-09-06T03:01:50.480Z,21.86
2022-09-06T03:04:18.287Z,21.84
2022-09-06T03:06:46.009Z,21.79
2022-09-06T03:09:13.696Z,21.75
2022-09-06T03:11:41.659Z,21.74
2022-09-06T03:14:09.378Z,21.72
2022-09-06T03:16:38.615Z,21.70
2022-09-06T03:19:06.490Z,21.69
2022-09-06T03:21:34.969Z,21.67
2022-09-06T03:24:02.706Z,21.65
2022-09-06T03:26:30.775Z,21.65
2022-09-06T03:28:58.436Z,21.65
2022-09-06T03:31:27.433Z,21.66
2022-09-06T03:33:55.153Z,21.64
2022-09-06T03:36:22.889Z,21.61
2022-09-06T03:38:51.265Z,21.58
2022-09-06T03:41:19.221Z,21.56
2022-09-06T03:43:47.073Z,21.52
2022-09-06T03:46:14.946Z,21.51
2022-09-06T03:48:42.797Z,21.49
2022-09-06T03:51:10.910Z,21.44
2022-09-06T03:53:38.640Z,21.41
2022-09-06T03:56:06.477Z,21.38
2022-09-06T03:58:34.274Z,21.36
2022-09-06T04:01:02.287Z,21.34
2022-09-06T04:03:30.060Z,21.32
2022-09-06T04:05:57.761Z,21.29
2022-09-06T04:08:25.605Z,21.26
2022-09-06T04:10:53.627Z,21.24
2022-09-06T04:13:21.488Z,21.22
2022-09-06T04:15:49.092Z,21.19
2022-09-06T04:18:16.796Z,21.15
2022-09-06T04:20:44.457Z,21.13
2022-09-06T04:23:12.432Z,21.11
2022-09-06T04:25:40.223Z,21.09
2022-09-06T04:28:07.901Z,21.06
2022-09-06T04:30:35.637Z,21.04
2022-09-06T04:33:03.700Z,21.03
2022-09-06T04:35:31.406Z,21.03
2022-09-06T04:37:59.203Z,21.03
2022-09-06T04:40:27.015Z,21.01
2022-09-06T04:42:55.047Z,21.03
2022-09-06T04:45:22.722Z,21.02
2022-09-06T04:47:51.675Z,21.02
2022-09-06T04:50:19.386Z,21.03
2022-09-06T04:52:47.351Z,21.01
2022-09-06T04:55:15.114Z,21.00
2022-09-06T04:57:46.595Z,21.00
2022-09-06T05:00:16.265Z,20.98
2022-09-06T05:02:45.218Z,20.98
2022-09-06T05:05:13.018Z,20.97
2022-09-06T05:07:40.673Z,20.96
2022-09-06T05:10:09.116Z,20.94
2022-09-06T05:12:38.844Z,20.92
2022-09-06T05:15:09.896Z,20.92
2022-09-06T05:17:37.546Z,20.90
2022-09-06T05:20:05.201Z,20.88
2022-09-06T05:22:33.217Z,20.87
2022-09-06T05:25:00.917Z,20.88
2022-09-06T05:27:28.708Z,20.88
2022-09-06T05:29:56.450Z,20.88
2022-09-06T05:32:25.108Z,20.89
2022-09-06T05:34:52.853Z,20.92
2022-09-06T05:37:20.636Z,20.93
2022-09-06T05:39:48.354Z,20.94
2022-09-06T05:42:19.281Z,20.93
2022-09-06T05:44:47.159Z,20.92
2022-09-06T05:47:14.957Z,20.88
2022-09-06T05:49:42.706Z,20.86
2022-09-06T05:52:10.387Z,20.82
2022-09-06T05:54:38.010Z,20.78
2022-09-06T05:57:05.828Z,20.75
2022-09-06T05:59:34.388Z,20.72
2022-09-06T06:02:05.457Z,20.69
2022-09-06T06:04:35.068Z,20.67
2022-09-06T06:07:02.928Z,20.64
2022-09-06T06:09:30.970Z,20.60
2022-09-06T06:11:58.647Z,20.57
2022-09-06T06:14:26.395Z,20.53
2022-09-06T06:16:54.289Z,20.52
2022-09-06T06:19:22.037Z,20.58
2022-09-06T06:21:50.364Z,20.67
2022-09-06T06:24:18.036Z,20.77
2022-09-06T06:26:45.796Z,20.79
2022-09-06T06:29:13.714Z,20.81
2022-09-06T06:31:41.751Z,20.88
2022-09-06T06:34:09.479Z,20.89
2022-09-06T06:36:37.253Z,20.91
2022-09-06T06:39:05.094Z,20.89
2022-09-06T06:41:33.008Z,20.89
2022-09-06T06:44:00.806Z,20.98
2022-09-06T06:46:28.600Z,21.08
2022-09-06T06:48:56.465Z,21.20
2022-09-06T06:51:25.472Z,21.35
2022-09-06T06:53:53.206Z,21.51
2022-09-06T06:56:20.883Z,21.66
2022-09-06T06:58:48.615Z,21.84
2022-09-06T07:01:17.801Z,21.98
2022-09-06T07:03:45.736Z,22.15
2022-09-06T07:06:13.598Z,22.30
2022-09-06T07:08:41.468Z,22.44
2022-09-06T07:11:10.088Z,22.58
2022-09-06T07:13:37.763Z,22.73
2022-09-06T07:16:05.546Z,22.86
2022-09-06T07:18:33.205Z,23.01
2022-09-06T07:26:33.052Z,23.52
2022-09-06T07:29:01.876Z,23.67
2022-09-06T07:34:18.171Z,24.03
2022-09-06T07:36:46.802Z,24.18
2022-09-06T07:39:14.543Z,24.35
2022-09-06T07:41:42.267Z,24.50
2022-09-06T07:44:10.116Z,24.65
2022-09-06T07:46:37.796Z,24.80
2022-09-06T07:49:05.545Z,24.93
2022-09-06T07:51:33.468Z,25.05
2022-09-06T07:54:26.398Z,25.18
2022-09-06T07:56:48.993Z,25.31
2022-09-06T07:59:19.019Z,25.44
2022-09-06T08:01:47.884Z,25.57
2022-09-06T08:04:15.701Z,25.70
2022-09-06T08:09:31.449Z,25.90
2022-09-06T08:11:59.493Z,25.99
2022-09-06T08:14:27.161Z,26.09
2022-09-06T08:16:55.056Z,26.19
2022-09-06T08:19:22.878Z,26.28
2022-09-06T08:21:51.059Z,26.38
2022-09-06T08:24:18.933Z,26.49
2022-09-06T08:26:46.784Z,26.60
2022-09-06T08:29:14.482Z,26.69
2022-09-06T08:31:42.342Z,26.79
2022-09-06T08:34:12.712Z,26.90
2022-09-06T08:36:40.904Z,26.98
2022-09-06T08:39:09.246Z,27.09
2022-09-06T08:41:37.110Z,27.18
2022-09-06T08:46:52.920Z,27.38
2022-09-06T08:49:20.754Z,27.42
2022-09-06T08:51:48.779Z,27.50
2022-09-06T08:54:16.518Z,27.55
2022-09-06T08:56:44.267Z,27.61
2022-09-06T08:59:12.122Z,27.69
2022-09-06T09:01:41.626Z,27.77
2022-09-06T09:04:09.476Z,27.88
2022-09-06T09:06:37.176Z,27.97
2022-09-06T09:09:05.058Z,28.10
2022-09-06T09:11:36.290Z,28.24
2022-09-06T09:14:04.139Z,28.42
2022-09-06T09:16:31.942Z,28.56
2022-09-06T09:18:59.749Z,28.63
2022-09-06T09:21:30.640Z,28.63
2022-09-06T09:23:58.991Z,28.71
2022-09-06T09:26:26.983Z,28.81
2022-09-06T09:28:54.740Z,28.96
2022-09-06T09:31:23.454Z,29.03
2022-09-06T09:33:51.465Z,29.10
2022-09-06T09:36:19.201Z,29.17
2022-09-06T09:38:47.000Z,29.21
2022-09-06T09:41:15.041Z,29.25
2022-09-06T09:43:42.785Z,29.23
2022-09-06T09:46:11.061Z,29.20
2022-09-06T09:48:39.901Z,29.21
2022-09-06T09:51:07.555Z,29.35
2022-09-06T09:53:35.337Z,29.68
2022-09-06T09:56:03.096Z,30.24
2022-09-06T09:58:31.766Z,30.94
2022-09-06T10:00:59.587Z,31.91
2022-09-06T10:03:27.673Z,32.81
2022-09-06T10:06:02.057Z,33.51
2022-09-06T10:08:30.843Z,34.21
2022-09-06T10:10:58.954Z,34.82
2022-09-06T10:13:26.807Z,35.46
2022-09-06T10:15:54.616Z,36.00
2022-09-06T10:18:22.477Z,36.62
2022-09-06T10:20:50.558Z,37.14
2022-09-06T10:23:18.583Z,37.58
2022-09-06T10:25:49.556Z,38.00
2022-09-06T10:28:17.595Z,38.49
2022-09-06T10:30:45.757Z,38.88
2022-09-06T10:33:13.915Z,39.19
2022-09-06T10:35:41.674Z,39.08
2022-09-06T10:38:10.196Z,38.87
2022-09-06T10:40:38.316Z,38.77
2022-09-06T10:43:06.123Z,38.39
2022-09-06T10:45:34.211Z,38.20
2022-09-06T10:48:03.193Z,38.21
2022-09-06T10:50:30.873Z,38.24
2022-09-06T10:52:58.870Z,38.28
2022-09-06T10:55:26.663Z,38.48
2022-09-06T11:00:42.271Z,39.04
2022-09-06T11:05:57.885Z,39.77
2022-09-06T11:11:13.382Z,39.69
2022-09-06T11:13:41.190Z,39.77
2022-09-06T11:16:09.253Z,39.98
2022-09-06T11:18:37.071Z,40.11
2022-09-06T11:21:05.077Z,40.47
2022-09-06T11:23:32.895Z,40.92
2022-09-06T11:26:00.613Z,41.40
2022-09-06T11:28:28.376Z,41.78
2022-09-06T11:30:56.569Z,42.05
2022-09-06T11:33:24.452Z,42.25
2022-09-06T11:35:52.374Z,42.52
2022-09-06T11:38:20.087Z,42.78
2022-09-06T11:40:47.984Z,42.90
2022-09-06T11:43:15.647Z,43.01
2022-09-06T11:45:43.338Z,43.00
2022-09-06T11:48:10.996Z,42.93
2022-09-06T11:50:38.688Z,43.21
2022-09-06T11:53:06.693Z,43.52
2022-09-06T11:55:34.523Z,43.71
2022-09-06T11:58:02.250Z,43.83
2022-09-06T12:00:30.121Z,43.91
2022-09-06T12:05:48.230Z,43.39
2022-09-06T12:08:16.042Z,42.94
2022-09-06T12:10:49.893Z,42.74
2022-09-06T12:13:17.493Z,42.81
2022-09-06T12:15:45.202Z,42.97
2022-09-06T12:18:12.952Z,42.94
2022-09-06T12:20:46.198Z,42.80
2022-09-06T12:23:13.886Z,42.71
2022-09-06T12:25:41.900Z,42.64
2022-09-06T12:28:09.947Z,42.37
2022-09-06T12:30:37.810Z,41.82
2022-09-06T12:33:05.751Z,41.69
2022-09-06T12:38:22.281Z,41.72
2022-09-06T12:40:51.812Z,41.45
2022-09-06T12:43:19.599Z,40.92
2022-09-06T12:45:47.339Z,40.25
2022-09-06T12:48:16.689Z,39.73
2022-09-06T12:50:45.351Z,39.21
2022-09-06T12:53:15.853Z,38.36
2022-09-06T12:55:43.770Z,37.41
2022-09-06T12:58:11.663Z,36.95
2022-09-06T13:00:39.655Z,36.56
2022-09-06T13:03:12.044Z,36.33
2022-09-06T13:05:39.707Z,36.07
2022-09-06T13:08:07.456Z,35.78
2022-09-06T13:10:35.185Z,35.45
2022-09-06T13:13:05.376Z,35.19
2022-09-06T13:15:33.141Z,34.95
2022-09-06T13:18:00.892Z,34.90
2022-09-06T13:20:28.552Z,34.92
2022-09-06T13:22:56.263Z,34.94
2022-09-06T13:25:24.014Z,34.99
2022-09-06T13:27:52.083Z,35.04
2022-09-06T13:30:19.883Z,34.94
2022-09-06T13:32:47.969Z,34.82
2022-09-06T13:35:15.755Z,34.74
2022-09-06T13:37:45.446Z,34.70
2022-09-06T13:40:13.194Z,34.58
2022-09-06T13:42:41.208Z,34.37
2022-09-06T13:45:09.010Z,34.58
2022-09-06T13:47:36.833Z,34.87
2022-09-06T13:50:04.654Z,35.00
2022-09-06T13:52:33.327Z,35.13
2022-09-06T13:55:01.074Z,35.32
2022-09-06T13:57:28.828Z,35.57
2022-09-06T13:59:56.496Z,35.81
2022-09-06T14:02:25.236Z,36.00
2022-09-06T14:04:52.977Z,36.15
2022-09-06T14:07:20.960Z,36.03
2022-09-06T14:09:50.251Z,35.91
2022-09-06T14:12:18.275Z,35.73
2022-09-06T14:14:46.064Z,35.66
2022-09-06T14:17:14.433Z,35.64
2022-09-06T14:19:42.965Z,35.84
2022-09-06T14:22:10.997Z,36.15
2022-09-06T14:24:38.764Z,36.47
2022-09-06T14:27:07.330Z,36.84
2022-09-06T14:29:35.889Z,37.28
2022-09-06T14:32:03.614Z,37.60
2022-09-06T14:34:31.421Z,37.73
2022-09-06T14:36:59.291Z,37.69
2022-09-06T14:39:27.847Z,37.70
2022-09-06T14:41:55.632Z,37.76
2022-09-06T14:44:23.377Z,37.78
2022-09-06T14:46:53.615Z,37.86
2022-09-06T14:49:21.939Z,37.93
2022-09-06T14:51:49.699Z,38.18
2022-09-06T14:54:17.521Z,38.30
2022-09-06T14:56:45.157Z,38.14
2022-09-06T14:59:12.912Z,38.03
2022-09-06T15:01:41.243Z,37.85
2022-09-06T15:04:09.426Z,37.62
2022-09-06T15:06:37.220Z,37.37
2022-09-06T15:09:05.632Z,37.26
2022-09-06T15:11:34.698Z,37.31
2022-09-06T15:14:04.184Z,37.50
2022-09-06T15:16:32.898Z,37.74
2022-09-06T15:19:00.742Z,38.06
2022-09-06T15:21:28.591Z,38.39
2022-09-06T15:23:57.121Z,38.79
2022-09-06T15:26:25.412Z,39.06
2022-09-06T15:28:53.086Z,39.28
2022-09-06T15:31:21.197Z,39.46
2022-09-06T15:33:50.028Z,39.66
2022-09-06T15:36:17.715Z,39.92
2022-09-06T15:38:45.597Z,40.14
2022-09-06T15:41:13.357Z,40.41
2022-09-06T15:43:42.280Z,40.56
2022-09-06T15:46:10.721Z,40.76
2022-09-06T15:48:38.384Z,41.11
2022-09-06T15:51:06.210Z,41.31
2022-09-06T15:53:33.854Z,41.54
2022-09-06T15:56:02.804Z,41.71
2022-09-06T15:58:30.611Z,41.69
2022-09-06T16:00:58.345Z,41.37
2022-09-06T16:03:26.633Z,40.85
2022-09-06T16:08:42.017Z,38.18
2022-09-06T16:11:10.804Z,36.99
2022-09-06T16:13:38.522Z,36.02
2022-09-06T16:16:06.312Z,35.27
2022-09-06T16:18:34.025Z,34.66
2022-09-06T16:21:03.165Z,34.14
2022-09-06T16:23:31.332Z,33.69
2022-09-06T16:25:59.013Z,33.32
2022-09-06T16:28:26.728Z,32.99
2022-09-06T16:30:54.523Z,32.71
2022-09-06T16:33:23.619Z,32.47
2022-09-06T16:35:51.400Z,32.25
2022-09-06T16:38:19.628Z,32.05
2022-09-06T16:40:47.474Z,31.85
2022-09-06T16:43:17.538Z,31.66
2022-09-06T16:45:45.330Z,31.45
2022-09-06T16:48:13.068Z,31.28
2022-09-06T16:50:40.820Z,31.17
2022-09-06T16:53:10.931Z,31.04
2022-09-06T16:55:39.355Z,30.91
2022-09-06T16:58:07.095Z,30.76
2022-09-06T17:00:34.878Z,30.61
2022-09-06T17:03:07.553Z,30.48
2022-09-06T17:05:35.269Z,30.37
2022-09-06T17:08:03.478Z,30.27
2022-09-06T17:10:31.360Z,30.17
2022-09-06T17:12:59.483Z,30.06
2022-09-06T17:15:47.386Z,29.94
2022-09-06T17:18:14.095Z,29.81
2022-09-06T17:20:47.677Z,29.68
2022-09-06T17:23:19.205Z,29.53
2022-09-06T17:25:47.525Z,29.36
2022-09-06T17:28:15.183Z,29.21
2022-09-06T17:30:42.897Z,29.07
2022-09-06T17:33:10.689Z,28.92
2022-09-06T17:35:38.455Z,28.76
2022-09-06T17:38:06.242Z,28.64
2022-09-06T17:40:36.450Z,28.51
2022-09-06T17:43:05.328Z,28.37
2022-09-06T17:45:33.178Z,28.24
2022-09-06T17:48:01.109Z,28.11
2022-09-06T17:50:28.932Z,27.99
2022-09-06T17:52:56.989Z,27.89
2022-09-06T17:55:24.714Z,27.78
2022-09-06T17:57:52.573Z,27.68
2022-09-06T18:00:20.331Z,27.58
2022-09-06T18:02:54.681Z,27.49
2022-09-06T18:05:23.220Z,27.39
2022-09-06T18:07:50.974Z,27.27
2022-09-06T18:10:18.944Z,27.18
2022-09-06T18:12:48.363Z,27.08
2022-09-06T18:15:16.028Z,26.99
2022-09-06T18:17:44.464Z,26.90
2022-09-06T18:20:12.107Z,26.79
2022-09-06T18:22:40.289Z,26.71
2022-09-06T18:25:08.980Z,26.62
2022-09-06T18:27:36.756Z,26.48
2022-09-06T18:30:04.508Z,26.34
2022-09-06T18:32:32.717Z,26.18
2022-09-06T18:35:00.605Z,26.03
2022-09-06T18:37:28.464Z,25.88
2022-09-06T18:39:56.291Z,25.76
2022-09-06T18:42:24.469Z,25.64
2022-09-06T18:44:52.235Z,25.58
2022-09-06T18:47:20.167Z,25.50
2022-09-06T18:49:48.191Z,25.45
2022-09-06T18:52:19.874Z,25.39
2022-09-06T18:54:49.623Z,25.32
2022-09-06T18:57:17.631Z,25.25
2022-09-06T18:59:45.711Z,25.20
2022-09-06T19:02:14.563Z,25.14
2022-09-06T19:04:42.404Z,25.08
2022-09-06T19:07:10.326Z,25.03
2022-09-06T19:09:38.119Z,24.96
2022-09-06T19:12:12.080Z,24.89
2022-09-06T19:14:39.920Z,24.80
2022-09-06T19:17:07.716Z,24.64
2022-09-06T19:19:35.443Z,24.45
2022-09-06T19:22:03.382Z,24.28
2022-09-06T19:24:31.363Z,24.13
2022-09-06T19:26:59.125Z,24.02
2022-09-06T19:29:27.630Z,23.90
2022-09-06T19:31:57.899Z,23.82
2022-09-06T19:34:25.685Z,23.79
2022-09-06T19:36:55.439Z,23.77
2022-09-06T19:39:23.323Z,23.74
2022-09-06T19:41:51.526Z,23.72
2022-09-06T19:44:20.856Z,23.64
2022-09-06T19:46:48.713Z,23.53
2022-09-06T19:49:16.551Z,23.42
2022-09-06T19:51:46.788Z,23.34
2022-09-06T19:54:15.625Z,23.28
2022-09-06T19:56:44.426Z,23.27
2022-09-06T19:59:13.097Z,23.25
2022-09-06T20:01:40.876Z,23.23
2022-09-06T20:04:15.205Z,23.22
2022-09-06T20:06:43.008Z,23.21
2022-09-06T20:09:10.801Z,23.19
2022-09-06T20:11:38.532Z,23.17
2022-09-06T20:14:06.601Z,23.16
2022-09-06T20:16:38.141Z,23.16
2022-09-06T20:19:08.545Z,23.15
2022-09-06T20:21:36.280Z,23.10
2022-09-06T20:24:04.137Z,23.08
2022-09-06T20:26:31.921Z,23.08
2022-09-06T20:28:59.844Z,23.07
2022-09-06T20:31:28.041Z,23.10
2022-09-06T20:33:56.203Z,23.20
2022-09-06T20:36:25.393Z,23.30
2022-09-06T20:38:53.207Z,23.38
2022-09-06T20:41:21.016Z,23.43
2022-09-06T20:43:49.231Z,23.48
2022-09-06T20:46:17.154Z,23.50
2022-09-06T20:48:45.446Z,23.51
2022-09-06T20:51:13.218Z,23.49
2022-09-06T20:53:42.262Z,23.50
2022-09-06T20:56:09.963Z,23.49
2022-09-06T20:58:38.737Z,23.45
2022-09-06T21:01:06.662Z,23.43
2022-09-06T21:03:35.867Z,23.44
2022-09-06T21:06:04.095Z,23.49
2022-09-06T21:08:34.671Z,23.54
2022-09-06T21:11:03.323Z,23.57
2022-09-06T21:13:31.320Z,23.56
2022-09-06T21:15:59.134Z,23.53
2022-09-06T21:18:27.070Z,23.47
2022-09-06T21:20:55.556Z,23.43
2022-09-06T21:23:23.662Z,23.39
2022-09-06T21:25:51.394Z,23.29
2022-09-06T21:28:19.110Z,23.21
2022-09-06T21:30:46.937Z,23.14
2022-09-06T21:33:15.787Z,23.09
2022-09-06T21:35:43.520Z,23.09
2022-09-06T21:38:11.183Z,23.11
2022-09-06T21:40:38.895Z,23.15
2022-09-06T21:43:06.818Z,23.19
2022-09-06T21:45:34.601Z,23.24
2022-09-06T21:48:02.332Z,23.28
2022-09-06T21:50:30.056Z,23.30
2022-09-06T21:52:58.463Z,23.33
2022-09-06T21:55:26.180Z,23.35
2022-09-06T21:57:53.809Z,23.40
2022-09-06T22:00:21.542Z,23.43
2022-09-06T22:02:49.896Z,23.48
2022-09-06T22:05:17.787Z,23.57
2022-09-06T22:07:45.421Z,23.72
2022-09-06T22:10:13.097Z,23.84
2022-09-06T22:12:42.272Z,23.95
2022-09-06T22:15:10.264Z,24.09
2022-09-06T22:17:37.995Z,24.20
2022-09-06T22:20:06.401Z,24.27
2022-09-06T22:22:35.588Z,24.31
2022-09-06T22:25:03.323Z,24.35
2022-09-06T22:27:31.021Z,24.37
2022-09-06T22:29:58.694Z,24.36
2022-09-06T22:32:26.646Z,24.36
2022-09-06T22:34:54.666Z,24.35
2022-09-06T22:37:22.397Z,24.36
2022-09-06T22:39:50.150Z,24.36
2022-09-06T22:42:18.219Z,24.36
2022-09-06T22:44:45.893Z,24.36
2022-09-06T22:47:13.611Z,24.37
2022-09-06T22:49:41.296Z,24.36
2022-09-06T22:52:10.040Z,24.35
2022-09-06T22:54:38.288Z,24.33
2022-09-06T22:57:05.971Z,24.33
2022-09-06T22:59:33.593Z,24.31
2022-09-06T23:02:01.634Z,24.28
2022-09-06T23:04:29.367Z,24.26
2022-09-06T23:06:57.105Z,24.24
2022-09-06T23:09:24.727Z,24.22
2022-09-06T23:11:52.895Z,24.21
2022-09-06T23:14:20.565Z,24.20
2022-09-06T23:16:48.293Z,24.18
2022-09-06T23:19:15.950Z,24.16
2022-09-06T23:21:43.793Z,24.14
2022-09-06T23:24:11.422Z,24.12
2022-09-06T23:26:39.043Z,24.11
2022-09-06T23:29:08.156Z,24.08
2022-09-06T23:31:35.822Z,24.07
2022-09-06T23:34:03.822Z,24.03
2022-09-06T23:36:31.449Z,24.01
2022-09-06T23:38:59.342Z,24.00
2022-09-06T23:41:27.008Z,23.97
2022-09-06T23:43:54.795Z,23.98
2022-09-06T23:46:22.533Z,23.95
2022-09-06T23:48:50.536Z,23.92
2022-09-06T23:51:18.154Z,23.88
2022-09-06T23:53:45.889Z,23.86
2022-09-06T23:56:13.549Z,23.84
2022-09-06T23:58:41.176Z,23.80
